Time;durP1;ratioP1;P1;durP2;ratioP2;P2;SDS_P1;SDS_P2;PMS_P1;PMS_P2;Temp;Humidity;BMP_temperature;BMP_pressure;BME280_temperature;BME280_humidity;BME280_pressure;Samples;Min_cycle;Max_cycle;Signal;HPM_P1;HPM_P2
2022/12/05 00:02:34;;;;;;;10.35;8.80;;;;;;;;;;5066279;28;20133;-55
2022/12/05 00:05:26;;;;;;;14.50;9.32;;;;;;;;;;5049494;28;20104;-54
2022/12/05 00:14:03;;;;;;;13.48;9.32;;;;;;;;;;5066184;28;20063;-53
2022/12/05 00:19:32;;;;;;;11.63;9.80;;;;;;;;;;5085910;28;20036;-52
2022/12/05 00:22:06;;;;;;;10.80;8.47;;;;;;;;;;5086030;28;20028;-55
2022/12/05 00:24:53;;;;;;;13.20;9.45;;;;;;;;;;5069340;28;20040;-56
2022/12/05 00:27:38;;;;;;;14.68;9.82;;;;;;;;;;5086090;28;20070;-53
2022/12/05 00:30:41;;;;;;;16.37;9.97;;;;;;;;;;5085316;28;20097;-56
2022/12/05 00:36:33;;;;;;;13.80;9.83;;;;;;;;;;5087478;28;20033;-55
2022/12/05 00:39:10;;;;;;;13.50;8.57;;;;;;;;;;5128999;28;20028;-55
2022/12/05 00:41:58;;;;;;;11.93;8.30;;;;;;;;;;5128209;28;20019;-56
2022/12/05 00:44:33;;;;;;;10.03;7.37;;;;;;;;;;5128118;28;20034;-52
2022/12/05 00:50:14;;;;;;;14.80;10.57;;;;;;;;;;5096585;28;20027;-55
2022/12/05 00:52:53;;;;;;;12.20;8.83;;;;;;;;;;5127289;28;20440;-56
2022/12/05 00:58:40;;;;;;;13.48;8.32;;;;;;;;;;5114885;28;20030;-55
2022/12/05 01:01:16;;;;;;;19.33;10.27;;;;;;;;;;5109701;28;20497;-54
2022/12/05 01:03:53;;;;;;;16.17;10.60;;;;;;;;;;5128052;28;20034;-56
2022/12/05 01:09:54;;;;;;;12.07;9.00;;;;;;;;;;5120615;28;20032;-52
2022/12/05 01:12:33;;;;;;;12.47;8.93;;;;;;;;;;5131609;28;20505;-55
2022/12/05 01:15:21;;;;;;;12.30;9.40;;;;;;;;;;5130807;28;20024;-54
2022/12/05 01:18:09;;;;;;;13.80;7.50;;;;;;;;;;5112751;28;20031;-55
2022/12/05 01:24:18;;;;;;;9.73;6.87;;;;;;;;;;5131791;28;20036;-56
2022/12/05 01:27:04;;;;;;;8.80;7.13;;;;;;;;;;5131866;28;20028;-55
2022/12/05 01:29:46;;;;;;;17.47;8.63;;;;;;;;;;5131720;28;20024;-55
2022/12/05 01:32:17;;;;;;;14.47;9.87;;;;;;;;;;5131640;28;20032;-53
2022/12/05 01:34:59;;;;;;;;;;;;;;;;;;;;;
2022/12/05 01:37:46;;;;;;;10.67;8.30;;;;;;;;;;5131218;28;20055;-55
2022/12/05 01:40:43;;;;;;;9.70;7.03;;;;;;;;;;5112987;28;20472;-56
2022/12/05 01:43:22;;;;;;;11.48;8.65;;;;;;;;;;5131305;28;20032;-56
2022/12/05 01:49:26;;;;;;;11.40;7.28;;;;;;;;;;5131202;28;20065;-55
2022/12/05 01:58:14;;;;;;;12.07;8.80;;;;;;;;;;5091929;28;20036;-54
2022/12/05 02:01:21;;;;;;;10.97;7.30;;;;;;;;;;5113122;28;20436;-55
2022/12/05 02:04:35;;;;;;;9.05;6.95;;;;;;;;;;5130630;28;20688;-56
2022/12/05 02:07:30;;;;;;;13.83;8.13;;;;;;;;;;5028494;28;20034;-55
2022/12/05 02:13:23;;;;;;;15.68;10.38;;;;;;;;;;5028000;28;20045;-55
2022/12/05 02:16:14;;;;;;;9.55;8.55;;;;;;;;;;5107983;28;20046;-55
2022/12/05 02:22:19;;;;;;;9.35;6.88;;;;;;;;;;5124879;28;20042;-53
2022/12/05 02:25:29;;;;;;;10.43;7.47;;;;;;;;;;5130060;28;20062;-54
2022/12/05 02:28:20;;;;;;;10.37;6.80;;;;;;;;;;5064502;28;20112;-57
2022/12/05 02:31:11;;;;;;;15.77;7.93;;;;;;;;;;5126429;28;20028;-55
2022/12/05 02:33:50;;;;;;;11.02;7.80;;;;;;;;;;5130362;28;20042;-54
2022/12/05 02:39:40;;;;;;;10.98;7.90;;;;;;;;;;5087074;28;20035;-54
2022/12/05 02:42:28;;;;;;;12.33;7.87;;;;;;;;;;5086964;28;20111;-54
2022/12/05 02:45:26;;;;;;;16.10;10.57;;;;;;;;;;5087309;28;20025;-55
2022/12/05 02:51:33;;;;;;;11.97;7.50;;;;;;;;;;5087215;28;20061;-57
2022/12/05 02:54:08;;;;;;;18.13;10.50;;;;;;;;;;5063831;28;20033;-54
2022/12/05 02:56:59;;;;;;;16.80;8.73;;;;;;;;;;5070573;28;20043;-57
2022/12/05 02:59:41;;;;;;;12.18;10.02;;;;;;;;;;5087084;28;20053;-56
2022/12/05 03:02:30;;;;;;;13.57;9.47;;;;;;;;;;5087569;28;20049;-57
2022/12/05 03:05:35;;;;;;;;;;;;;;;;;;;;;
2022/12/05 03:08:24;;;;;;;14.20;9.30;;;;;;;;;;5117138;28;20055;-56
2022/12/05 03:11:38;;;;;;;;;;;;;;;;;;;;;
2022/12/05 03:14:33;;;;;;;13.50;7.73;;;;;;;;;;5043394;28;20081;-52
2022/12/05 03:17:18;;;;;;;11.73;8.30;;;;;;;;;;5122633;28;20081;-53
2022/12/05 03:20:23;;;;;;;9.13;7.30;;;;;;;;;;5129869;28;20043;-53
2022/12/05 03:23:15;;;;;;;14.27;8.27;;;;;;;;;;5127881;28;20046;-55
2022/12/05 03:29:08;;;;;;;18.35;7.97;;;;;;;;;;5129287;28;20032;-55
2022/12/05 03:31:53;;;;;;;12.55;9.88;;;;;;;;;;5130096;28;20039;-55
2022/12/05 03:34:46;;;;;;;12.75;8.07;;;;;;;;;;5129637;28;20050;-56
2022/12/05 03:37:56;;;;;;;11.82;9.18;;;;;;;;;;5129891;28;20027;-53
2022/12/05 03:40:50;;;;;;;11.55;7.82;;;;;;;;;;5046258;28;20061;-53
2022/12/05 03:43:54;;;;;;;12.55;11.10;;;;;;;;;;5030322;28;20041;-54
2022/12/05 03:49:32;;;;;;;11.27;8.57;;;;;;;;;;5117969;28;20149;-55
2022/12/05 03:52:30;;;;;;;13.80;8.27;;;;;;;;;;5129398;28;20034;-56
2022/12/05 03:55:19;;;;;;;;;;;;;;;;;;;;;
2022/12/05 04:07:22;;;;;;;10.73;7.40;;;;;;;;;;5128957;28;20530;-55
2022/12/05 04:19:36;;;;;;;;;;;;;;;;;;;;;
2022/12/05 04:28:12;;;;;;;10.80;7.05;;;;;;;;;;5128399;28;20030;-55
2022/12/05 04:34:14;;;;;;;10.23;6.50;;;;;;;;;;5114879;28;20131;-56
2022/12/05 04:37:08;;;;;;;;;;;;;;;;;;;;;
2022/12/05 04:40:02;;;;;;;12.45;9.30;;;;;;;;;;5062967;28;20058;-57
2022/12/05 04:45:58;;;;;;;10.45;8.30;;;;;;;;;;5113842;28;20032;-56
2022/12/05 04:51:39;;;;;;;;;;;;;;;;;;;;;
2022/12/05 04:54:24;;;;;;;17.17;9.02;;;;;;;;;;5052248;28;20387;-55
2022/12/05 05:00:22;;;;;;;10.75;8.52;;;;;;;;;;4999559;28;20457;-55
2022/12/05 05:03:25;;;;;;;14.90;8.88;;;;;;;;;;4994219;28;20066;-57
2022/12/05 05:06:00;;;;;;;7.75;6.07;;;;;;;;;;5079132;28;20097;-57
2022/12/05 05:11:55;;;;;;;;;;;;;;;;;;;;;
2022/12/05 05:14:42;;;;;;;10.25;7.38;;;;;;;;;;5115240;28;20043;-57
2022/12/05 05:17:15;;;;;;;12.05;8.40;;;;;;;;;;5115901;28;20054;-58
2022/12/05 05:23:15;;;;;;;11.23;7.47;;;;;;;;;;5117969;28;20030;-56
2022/12/05 05:35:15;;;;;;;10.98;6.93;;;;;;;;;;5118279;28;20060;-57
2022/12/05 05:40:30;;;;;;;13.50;7.50;;;;;;;;;;5093758;28;20078;-55
2022/12/05 05:43:21;;;;;;;;;;;;;;;;;;;;;
2022/12/05 05:49:32;;;;;;;11.40;8.48;;;;;;;;;;5118616;28;20031;-57
2022/12/05 05:51:58;;;;;;;11.85;10.25;;;;;;;;;;5116301;28;20020;-55
2022/12/05 05:54:48;;;;;;;14.48;9.15;;;;;;;;;;5117624;28;20028;-55
2022/12/05 05:57:31;;;;;;;11.75;7.75;;;;;;;;;;5114240;28;20042;-57
2022/12/05 06:00:36;;;;;;;12.60;8.27;;;;;;;;;;5117555;28;20103;-56
2022/12/05 06:12:07;;;;;;;18.73;15.07;;;;;;;;;;5131576;28;20030;-53
2022/12/05 06:15:08;;;;;;;13.18;10.07;;;;;;;;;;5131486;28;20028;-54
2022/12/05 06:18:12;;;;;;;10.80;9.18;;;;;;;;;;5111334;28;20078;-56
2022/12/05 06:21:00;;;;;;;17.20;14.23;;;;;;;;;;5114845;28;20043;-55
2022/12/05 06:23:33;;;;;;;17.95;12.68;;;;;;;;;;5107190;28;20039;-54
2022/12/05 06:26:08;;;;;;;13.93;9.75;;;;;;;;;;5131628;28;20043;-57
2022/12/05 06:29:06;;;;;;;16.57;9.43;;;;;;;;;;5130826;28;20032;-54
2022/12/05 06:31:54;;;;;;;14.50;8.68;;;;;;;;;;5110407;28;20042;-56
2022/12/05 06:38:00;;;;;;;12.38;9.30;;;;;;;;;;5122085;28;20055;-55
2022/12/05 06:41:03;;;;;;;;;;;;;;;;;;;;;
2022/12/05 06:43:44;;;;;;;16.48;10.82;;;;;;;;;;5089148;28;20067;-52
2022/12/05 06:46:18;;;;;;;10.65;8.48;;;;;;;;;;5112729;28;20031;-50
2022/12/05 06:49:09;;;;;;;14.93;8.68;;;;;;;;;;5130199;28;20053;-54
2022/12/05 06:51:44;;;;;;;11.20;5.88;;;;;;;;;;5047339;28;20049;-55
2022/12/05 06:54:16;;;;;;;12.65;8.50;;;;;;;;;;5047955;28;20109;-55
2022/12/05 07:02:52;;;;;;;12.00;8.23;;;;;;;;;;5129854;28;20049;-53
2022/12/05 07:05:43;;;;;;;10.13;8.80;;;;;;;;;;5129282;28;20402;-52
2022/12/05 07:08:38;;;;;;;12.27;8.02;;;;;;;;;;5130849;28;20045;-55
2022/12/05 07:11:13;;;;;;;12.10;8.98;;;;;;;;;;5129526;28;20024;-55
2022/12/05 07:13:56;;;;;;;15.40;10.10;;;;;;;;;;5119625;28;20097;-51
2022/12/05 07:19:37;;;;;;;20.92;11.43;;;;;;;;;;5115839;28;20035;-55
2022/12/05 07:25:43;;;;;;;;;;;;;;;;;;;;;
2022/12/05 07:28:48;;;;;;;12.85;7.93;;;;;;;;;;5067351;28;20056;-56
2022/12/05 07:32:08;;;;;;;;;;;;;;;;;;;;;
2022/12/05 07:50:33;;;;;;;;;;;;;;;;;;;;;
2022/12/05 07:53:28;;;;;;;13.40;8.32;;;;;;;;;;5012615;28;20072;-55
2022/12/05 07:55:59;;;;;;;11.15;8.00;;;;;;;;;;5029310;28;20041;-54
2022/12/05 08:05:09;;;;;;;9.98;7.43;;;;;;;;;;5050779;28;20097;-52
2022/12/05 08:13:59;;;;;;;9.75;7.93;;;;;;;;;;5069865;28;20071;-54
2022/12/05 08:16:32;;;;;;;9.75;8.25;;;;;;;;;;5128378;28;20054;-54
2022/12/05 08:19:06;;;;;;;12.73;7.20;;;;;;;;;;5124380;28;20024;-53
2022/12/05 08:24:45;;;;;;;11.07;7.97;;;;;;;;;;5129136;28;20046;-58
2022/12/05 08:27:21;;;;;;;9.15;6.90;;;;;;;;;;5126932;28;20083;-56
2022/12/05 08:30:22;;;;;;;11.63;7.38;;;;;;;;;;5130193;28;20024;-57
2022/12/05 08:33:08;;;;;;;9.68;6.43;;;;;;;;;;5119905;28;20077;-58
2022/12/05 08:35:44;;;;;;;13.15;7.78;;;;;;;;;;5115539;28;20035;-58
2022/12/05 08:38:22;;;;;;;9.48;7.07;;;;;;;;;;5118619;28;20024;-56
2022/12/05 08:40:56;;;;;;;12.15;7.28;;;;;;;;;;5089130;28;20032;-57
2022/12/05 08:43:56;;;;;;;13.88;9.07;;;;;;;;;;5114089;28;20027;-56
2022/12/05 08:46:45;;;;;;;10.55;7.97;;;;;;;;;;5114044;28;20034;-57
2022/12/05 08:49:22;;;;;;;9.88;5.78;;;;;;;;;;5086705;28;20031;-56
2022/12/05 08:55:17;;;;;;;12.88;9.98;;;;;;;;;;5114262;28;20043;-58
2022/12/05 08:58:11;;;;;;;14.35;7.97;;;;;;;;;;5114638;28;20098;-58
2022/12/05 09:01:19;;;;;;;;;;;;;;;;;;;;;
2022/12/05 09:03:56;;;;;;;12.63;8.68;;;;;;;;;;5011284;28;20426;-58
2022/12/05 09:09:32;;;;;;;12.07;8.07;;;;;;;;;;5114370;28;20050;-56
2022/12/05 09:12:20;;;;;;;12.05;8.27;;;;;;;;;;5070942;28;20031;-57
2022/12/05 09:18:14;;;;;;;;;;;;;;;;;;;;;
2022/12/05 09:20:59;;;;;;;;;;;;;;;;;;;;;
2022/12/05 09:23:30;;;;;;;10.73;7.13;;;;;;;;;;5071760;28;20029;-57
2022/12/05 09:29:17;;;;;;;10.80;6.50;;;;;;;;;;5067193;28;20036;-55
2022/12/05 09:35:27;;;;;;;8.50;6.22;;;;;;;;;;4993656;28;20046;-58
2022/12/05 09:38:22;;;;;;;10.80;6.78;;;;;;;;;;4995105;28;20033;-56
2022/12/05 09:51:35;;;;;;;9.15;6.78;;;;;;;;;;5054696;28;20044;-57
2022/12/05 09:54:19;;;;;;;7.20;5.57;;;;;;;;;;5010194;28;20041;-57
2022/12/05 09:57:09;;;;;;;7.10;5.93;;;;;;;;;;5045747;28;20161;-54
2022/12/05 10:03:32;;;;;;;8.68;5.55;;;;;;;;;;5034822;28;20426;-57
2022/12/05 10:06:25;;;;;;;6.20;4.68;;;;;;;;;;5034304;28;20041;-55
2022/12/05 10:12:34;;;;;;;9.32;5.35;;;;;;;;;;5121820;28;20522;-57
2022/12/05 10:18:11;;;;;;;8.98;5.32;;;;;;;;;;5131215;28;20104;-57
2022/12/05 10:21:10;;;;;;;6.15;4.63;;;;;;;;;;5130599;28;20026;-56
2022/12/05 10:26:55;;;;;;;7.80;5.22;;;;;;;;;;5120347;28;20028;-58
2022/12/05 10:29:43;;;;;;;6.03;4.78;;;;;;;;;;5113476;28;20060;-58
2022/12/05 10:32:44;;;;;;;;;;;;;;;;;;;;;
2022/12/05 10:35:22;;;;;;;9.82;4.82;;;;;;;;;;5131462;28;20055;-55
2022/12/05 10:38:20;;;;;;;;;;;;;;;;;;;;;
2022/12/05 10:41:07;;;;;;;5.00;4.00;;;;;;;;;;5119352;28;20051;-58
2022/12/05 10:43:46;;;;;;;5.22;3.70;;;;;;;;;;5129272;28;20068;-58
2022/12/05 10:46:18;;;;;;;6.10;3.85;;;;;;;;;;5111880;28;20099;-55
2022/12/05 10:49:29;;;;;;;3.97;3.00;;;;;;;;;;5131012;28;20028;-56
2022/12/05 10:52:40;;;;;;;;;;;;;;;;;;;;;
2022/12/05 10:55:32;;;;;;;4.63;3.60;;;;;;;;;;5089291;28;20135;-58
2022/12/05 11:01:35;;;;;;;4.72;3.63;;;;;;;;;;5060076;28;20045;-57
2022/12/05 11:04:21;;;;;;;4.97;3.42;;;;;;;;;;5115471;28;20036;-55
2022/12/05 11:20:09;;;;;;;4.57;2.78;;;;;;;;;;4969689;28;20042;-57
2022/12/05 11:23:08;;;;;;;5.15;2.55;;;;;;;;;;4989139;28;20054;-54
2022/12/05 11:25:44;;;;;;;4.63;2.47;;;;;;;;;;4972655;28;20109;-54
2022/12/05 11:28:32;;;;;;;3.58;2.30;;;;;;;;;;5077280;28;20066;-55
2022/12/05 11:31:19;;;;;;;7.60;2.53;;;;;;;;;;5084437;28;20031;-54
2022/12/05 11:34:16;;;;;;;3.67;2.42;;;;;;;;;;5110282;28;20030;-56
2022/12/05 11:37:11;;;;;;;3.35;2.42;;;;;;;;;;5109608;28;20093;-53
2022/12/05 11:40:07;;;;;;;;;;;;;;;;;;;;;
2022/12/05 11:43:16;;;;;;;3.70;2.20;;;;;;;;;;5067039;28;20048;-59
2022/12/05 11:46:02;;;;;;;4.13;2.35;;;;;;;;;;5109734;28;20034;-57
2022/12/05 11:48:52;;;;;;;2.13;1.30;;;;;;;;;;5108197;28;20339;-55
2022/12/05 11:51:46;;;;;;;3.10;2.05;;;;;;;;;;5109353;28;20367;-58
2022/12/05 11:54:53;;;;;;;3.42;2.17;;;;;;;;;;5109057;28;20472;-58
2022/12/05 11:57:54;;;;;;;3.13;1.77;;;;;;;;;;5109807;28;20024;-56
2022/12/05 12:00:32;;;;;;;3.03;2.03;;;;;;;;;;5108838;28;20032;-59
2022/12/05 12:03:10;;;;;;;2.13;1.30;;;;;;;;;;5077406;28;20024;-57
2022/12/05 12:06:10;;;;;;;2.97;1.85;;;;;;;;;;5109437;28;20028;-56
2022/12/05 12:09:17;;;;;;;4.18;2.05;;;;;;;;;;5109971;28;20020;-55
2022/12/05 12:12:10;;;;;;;3.30;1.58;;;;;;;;;;5109463;28;20051;-57
2022/12/05 12:15:05;;;;;;;2.72;1.35;;;;;;;;;;5090486;28;20039;-57
2022/12/05 12:20:48;;;;;;;4.00;2.17;;;;;;;;;;5129182;28;20058;-57
2022/12/05 12:29:46;;;;;;;3.63;2.28;;;;;;;;;;5118291;28;20052;-58
2022/12/05 12:38:41;;;;;;;3.42;1.70;;;;;;;;;;5046295;28;20084;-58
2022/12/05 12:41:31;;;;;;;2.95;1.98;;;;;;;;;;5046675;28;20159;-58
2022/12/05 12:44:25;;;;;;;2.25;1.45;;;;;;;;;;5046683;28;20030;-58
2022/12/05 12:47:16;;;;;;;3.08;1.77;;;;;;;;;;5047133;28;20045;-56
2022/12/05 12:50:23;;;;;;;4.15;2.40;;;;;;;;;;5065303;28;20100;-58
2022/12/05 12:53:17;;;;;;;2.88;2.00;;;;;;;;;;4987689;28;20054;-56
2022/12/05 13:02:29;;;;;;;3.30;1.95;;;;;;;;;;4928987;29;20032;-58
2022/12/05 13:11:43;;;;;;;;;;;;;;;;;;;;;
2022/12/05 13:17:33;;;;;;;3.15;1.77;;;;;;;;;;5030454;28;20049;-58
2022/12/05 13:20:38;;;;;;;2.17;1.83;;;;;;;;;;5030316;28;20117;-58
2022/12/05 13:23:19;;;;;;;4.72;2.33;;;;;;;;;;4972336;29;20035;-58
2022/12/05 13:31:57;;;;;;;4.38;2.65;;;;;;;;;;4992042;28;20037;-57
2022/12/05 13:53:02;;;;;;;2.92;1.75;;;;;;;;;;5132412;28;20031;-58
2022/12/05 13:55:50;;;;;;;3.45;1.52;;;;;;;;;;5131108;28;20035;-56
2022/12/05 13:58:38;;;;;;;3.38;2.17;;;;;;;;;;5131287;28;20031;-58
2022/12/05 14:01:43;;;;;;;3.50;2.15;;;;;;;;;;5132057;28;20020;-57
2022/12/05 14:04:27;;;;;;;2.60;2.03;;;;;;;;;;5132045;28;20051;-58
2022/12/05 14:10:30;;;;;;;3.50;2.53;;;;;;;;;;5130891;28;20096;-55
2022/12/05 14:13:32;;;;;;;2.97;2.00;;;;;;;;;;5129368;28;20036;-58
2022/12/05 14:25:22;;;;;;;;;;;;;;;;;;5105162;28;20059;-54
2022/12/05 14:31:13;;;;;;;2.40;1.38;;;;;;;;;;5092274;28;20039;-57
2022/12/05 14:34:27;;;;;;;;;;;;;;;;;;;;;
2022/12/05 14:37:18;;;;;;;3.42;2.22;;;;;;;;;;5094213;28;20043;-58
2022/12/05 14:40:16;;;;;;;2.15;1.23;;;;;;;;;;5094353;28;20039;-57
2022/12/05 14:46:15;;;;;;;2.55;1.63;;;;;;;;;;5065826;28;20052;-57
2022/12/05 14:49:07;;;;;;;2.10;1.52;;;;;;;;;;5099438;28;20036;-56
2022/12/05 14:57:56;;;;;;;3.50;1.85;;;;;;;;;;5109130;28;20028;-57
2022/12/05 15:00:44;;;;;;;2.47;1.58;;;;;;;;;;5130421;28;20057;-55
2022/12/05 15:03:33;;;;;;;2.55;1.55;;;;;;;;;;5130459;28;20028;-55
2022/12/05 15:06:39;;;;;;;1.92;1.23;;;;;;;;;;5131119;28;20020;-57
2022/12/05 15:09:32;;;;;;;1.77;1.23;;;;;;;;;;5125565;28;20031;-57
2022/12/05 15:15:24;;;;;;;2.55;1.35;;;;;;;;;;5095563;28;20474;-53
2022/12/05 15:18:03;;;;;;;2.05;1.52;;;;;;;;;;5111067;28;20105;-57
2022/12/05 15:20:34;;;;;;;3.20;1.40;;;;;;;;;;5091358;28;20054;-56
2022/12/05 15:26:45;;;;;;;3.35;1.55;;;;;;;;;;5026945;28;20049;-58
2022/12/05 15:29:32;;;;;;;2.30;1.60;;;;;;;;;;5010557;28;20026;-58
2022/12/05 15:32:31;;;;;;;;;;;;;;;;;;;;;
2022/12/05 15:35:03;;;;;;;2.53;1.60;;;;;;;;;;5108825;28;20070;-56
2022/12/05 15:38:02;;;;;;;;;;;;;;;;;;;;;
2022/12/05 15:40:50;;;;;;;6.03;4.30;;;;;;;;;;5108949;28;20048;-56
2022/12/05 15:49:40;;;;;;;8.90;4.93;;;;;;;;;;5017505;28;20556;-55
2022/12/05 15:52:30;;;;;;;8.82;5.95;;;;;;;;;;5045046;28;20572;-58
2022/12/05 15:55:39;;;;;;;;;;;;;;;;;;;;;
2022/12/05 15:58:34;;;;;;;9.27;6.13;;;;;;;;;;5054443;28;20031;-55
2022/12/05 16:01:29;;;;;;;10.13;6.57;;;;;;;;;;5033238;28;20032;-57
2022/12/05 16:04:22;;;;;;;12.05;5.30;;;;;;;;;;5033315;28;20479;-58
2022/12/05 16:10:25;;;;;;;;;;;;;;;;;;;;;
2022/12/05 16:13:48;;;;;;;12.40;7.72;;;;;;;;;;5015701;28;20049;-58
2022/12/05 16:17:01;;;;;;;;;;;;;;;;;;;;;
2022/12/05 16:19:47;;;;;;;;;;;;;;;;;;;;;
2022/12/05 16:22:52;;;;;;;8.68;7.18;;;;;;;;;;5041186;28;20041;-59
2022/12/05 16:25:41;;;;;;;13.18;7.55;;;;;;;;;;5060695;28;20047;-57
2022/12/05 16:28:50;;;;;;;6.63;5.80;;;;;;;;;;5075695;28;20035;-58
2022/12/05 16:31:38;;;;;;;8.63;7.30;;;;;;;;;;4995828;28;20038;-56
2022/12/05 16:34:35;;;;;;;11.13;7.45;;;;;;;;;;5088307;28;20358;-59
2022/12/05 16:37:25;;;;;;;11.65;9.15;;;;;;;;;;5010776;28;20042;-56
2022/12/05 16:40:26;;;;;;;;;;;;;;;;;;;;;
2022/12/05 16:43:06;;;;;;;12.40;9.07;;;;;;;;;;5100704;28;20024;-56
2022/12/05 16:46:01;;;;;;;12.05;8.90;;;;;;;;;;5101520;28;20028;-57
2022/12/05 16:52:15;;;;;;;11.38;8.40;;;;;;;;;;5087371;28;20039;-55
2022/12/05 16:55:08;;;;;;;9.43;8.52;;;;;;;;;;4981914;28;20065;-55
2022/12/05 16:57:34;;;;;;;10.48;8.52;;;;;;;;;;4999154;28;20038;-57
2022/12/05 17:00:13;;;;;;;9.77;6.97;;;;;;;;;;4998523;28;20033;-58
2022/12/05 17:03:03;;;;;;;11.52;9.43;;;;;;;;;;4982590;28;20069;-56
2022/12/05 17:11:28;;;;;;;12.45;8.40;;;;;;;;;;5064593;28;20076;-56
2022/12/05 17:14:25;;;;;;;12.32;7.97;;;;;;;;;;5083656;28;20071;-56
2022/12/05 17:17:27;;;;;;;9.93;7.90;;;;;;;;;;5100666;28;20024;-57
2022/12/05 17:23:31;;;;;;;11.25;8.02;;;;;;;;;;5121515;28;20044;-55
2022/12/05 17:26:22;;;;;;;11.50;7.28;;;;;;;;;;5121182;28;20024;-57
2022/12/05 17:29:05;;;;;;;9.50;7.88;;;;;;;;;;5121218;28;20548;-55
2022/12/05 17:32:00;;;;;;;11.70;8.23;;;;;;;;;;5114946;28;20472;-55
2022/12/05 17:34:55;;;;;;;14.60;9.45;;;;;;;;;;5015443;28;20488;-56
2022/12/05 17:37:37;;;;;;;12.95;7.32;;;;;;;;;;5018857;28;20084;-56
2022/12/05 17:40:37;;;;;;;11.90;8.70;;;;;;;;;;5018868;28;20022;-57
2022/12/05 17:43:35;;;;;;;9.70;7.90;;;;;;;;;;5019092;28;20550;-56
2022/12/05 17:46:32;;;;;;;12.27;8.65;;;;;;;;;;5086516;28;20537;-57
2022/12/05 17:49:01;;;;;;;13.70;9.20;;;;;;;;;;5099371;28;20501;-56
2022/12/05 17:52:04;;;;;;;;;;;;;;;;;;;;;
2022/12/05 17:54:34;;;;;;;11.32;8.38;;;;;;;;;;5052911;28;20063;-54
2022/12/05 17:57:03;;;;;;;10.77;7.68;;;;;;;;;;5061035;28;20025;-55
2022/12/05 17:59:57;;;;;;;10.35;8.75;;;;;;;;;;5118628;28;20396;-57
2022/12/05 18:02:33;;;;;;;10.05;8.93;;;;;;;;;;5118243;28;20438;-52
2022/12/05 18:05:15;;;;;;;9.75;8.57;;;;;;;;;;5117936;28;20020;-57
2022/12/05 18:08:12;;;;;;;12.45;9.55;;;;;;;;;;5058395;28;20055;-53
2022/12/05 18:11:09;;;;;;;13.20;8.52;;;;;;;;;;5075014;28;20020;-55
2022/12/05 18:17:16;;;;;;;10.43;8.60;;;;;;;;;;5080661;28;20085;-56
2022/12/05 18:20:09;;;;;;;9.65;8.57;;;;;;;;;;5072154;28;20467;-55
2022/12/05 18:22:56;;;;;;;10.18;9.02;;;;;;;;;;5041991;28;20498;-54
2022/12/05 18:28:47;;;;;;;11.88;8.50;;;;;;;;;;5002191;28;20166;-56
2022/12/05 18:31:23;;;;;;;12.82;9.55;;;;;;;;;;5075705;28;20462;-56
2022/12/05 18:37:02;;;;;;;;;;;;;;;;;;;;;
2022/12/05 18:40:00;;;;;;;10.48;8.05;;;;;;;;;;5087777;28;20038;-56
2022/12/05 18:42:26;;;;;;;13.32;9.13;;;;;;;;;;5078043;28;20543;-52
2022/12/05 18:45:28;;;;;;;12.68;8.70;;;;;;;;;;5096060;28;20024;-57
2022/12/05 18:48:00;;;;;;;12.43;8.63;;;;;;;;;;5076733;28;20545;-55
2022/12/05 18:50:49;;;;;;;20.05;12.23;;;;;;;;;;5095525;28;20403;-53
2022/12/05 18:53:51;;;;;;;;;;;;;;;;;;;;;
2022/12/05 18:56:44;;;;;;;23.15;16.45;;;;;;;;;;5091276;28;20055;-55
2022/12/05 18:59:50;;;;;;;26.27;14.10;;;;;;;;;;5094791;28;20458;-55
2022/12/05 19:02:27;;;;;;;27.92;13.00;;;;;;;;;;4996697;28;20044;-56
2022/12/05 19:05:15;;;;;;;;;;;;;;;;;;;;;
2022/12/05 19:11:07;;;;;;;23.08;14.20;;;;;;;;;;5081526;28;20039;-55
2022/12/05 19:13:35;;;;;;;27.88;16.65;;;;;;;;;;5077915;28;20047;-56
2022/12/05 19:16:13;;;;;;;21.27;11.55;;;;;;;;;;5095677;28;20020;-57
2022/12/05 19:18:54;;;;;;;21.48;12.52;;;;;;;;;;5088553;28;20497;-57
2022/12/05 19:21:36;;;;;;;16.63;11.48;;;;;;;;;;5035581;28;20045;-57
2022/12/05 19:24:21;;;;;;;14.50;10.35;;;;;;;;;;5050561;28;20144;-57
2022/12/05 19:27:08;;;;;;;;;;;;;;;;;;;;;
2022/12/05 19:35:28;;;;;;;14.15;10.95;;;;;;;;;;5029495;28;20474;-58
2022/12/05 19:41:43;;;;;;;18.00;12.40;;;;;;;;;;4973586;28;20038;-56
2022/12/05 19:44:11;;;;;;;;;;;;;;;;;;4974252;28;20058;-57
2022/12/05 19:47:41;;;;;;;17.30;11.85;;;;;;;;;;5074920;28;19904;-54
2022/12/05 19:49:57;;;;;;;13.07;10.60;;;;;;;;;;5085312;28;20035;-57
2022/12/05 19:58:53;;;;;;;11.13;9.68;;;;;;;;;;5094910;28;20116;-56
2022/12/05 20:01:54;;;;;;;15.65;11.32;;;;;;;;;;5010255;28;20026;-58
2022/12/05 20:07:44;;;;;;;13.23;10.75;;;;;;;;;;5091534;28;19993;-53
2022/12/05 20:10:24;;;;;;;13.35;10.48;;;;;;;;;;5076417;28;20525;-56
2022/12/05 20:13:31;;;;;;;19.07;13.87;;;;;;;;;;5075618;28;20098;-56
2022/12/05 20:16:36;;;;;;;;;;;;;;;;;;;;;
2022/12/05 20:19:58;;;;;;;16.55;11.35;;;;;;;;;;5096180;28;20469;-55
2022/12/05 20:23:03;;;;;;;13.95;9.77;;;;;;;;;;4989750;28;20085;-56
2022/12/05 20:29:01;;;;;;;17.63;10.52;;;;;;;;;;4991474;28;20141;-56
2022/12/05 20:31:37;;;;;;;13.35;11.00;;;;;;;;;;4993597;28;20034;-56
2022/12/05 20:41:03;;;;;;;;;;;;;;;;;;;;;
2022/12/05 20:43:51;;;;;;;11.90;8.55;;;;;;;;;;5093566;28;20383;-53
2022/12/05 20:46:40;;;;;;;13.02;9.98;;;;;;;;;;5094358;28;20028;-56
2022/12/05 20:49:55;;;;;;;16.88;11.70;;;;;;;;;;5077131;28;20490;-56
2022/12/05 20:52:39;;;;;;;14.25;9.40;;;;;;;;;;5099358;28;20032;-56
2022/12/05 20:55:24;;;;;;;18.45;10.70;;;;;;;;;;5083359;28;20039;-56
2022/12/05 20:58:02;;;;;;;14.88;9.98;;;;;;;;;;5106455;28;20046;-56
2022/12/05 21:01:00;;;;;;;13.13;10.13;;;;;;;;;;5106895;28;20020;-55
2022/12/05 21:03:57;;;;;;;17.20;11.50;;;;;;;;;;5089745;28;20018;-57
2022/12/05 21:09:27;;;;;;;14.75;12.40;;;;;;;;;;5106872;28;20090;-55
2022/12/05 21:11:56;;;;;;;13.35;9.55;;;;;;;;;;5084837;28;20028;-53
2022/12/05 21:14:33;;;;;;;12.85;9.77;;;;;;;;;;5085824;28;20049;-57
2022/12/05 21:17:29;;;;;;;;;;;;;;;;;;;;;
2022/12/05 21:20:27;;;;;;;15.45;10.77;;;;;;;;;;5067699;28;20148;-55
2022/12/05 21:23:19;;;;;;;;;;;;;;;;;;;;;
2022/12/05 21:29:02;;;;;;;13.18;9.57;;;;;;;;;;5068191;28;20056;-57
2022/12/05 21:32:09;;;;;;;16.35;10.45;;;;;;;;;;5069360;28;20029;-55
2022/12/05 21:34:58;;;;;;;16.42;9.68;;;;;;;;;;5010161;28;20066;-58
2022/12/05 21:37:45;;;;;;;11.20;9.32;;;;;;;;;;5065891;28;20352;-56
2022/12/05 21:40:36;;;;;;;11.38;8.95;;;;;;;;;;5069492;28;20021;-56
2022/12/05 21:43:06;;;;;;;13.38;10.13;;;;;;;;;;5069596;28;20061;-55
2022/12/05 21:45:52;;;;;;;12.38;10.00;;;;;;;;;;5069815;28;20021;-56
2022/12/05 21:49:26;;;;;;;17.98;13.23;;;;;;;;;;5053016;28;20037;-56
2022/12/05 21:51:29;;;;;;;14.95;9.98;;;;;;;;;;5096978;28;20074;-56
2022/12/05 21:54:14;;;;;;;14.20;9.45;;;;;;;;;;5091861;28;20044;-57
2022/12/05 22:00:02;;;;;;;14.48;11.07;;;;;;;;;;5065650;28;20096;-56
2022/12/05 22:05:44;;;;;;;14.65;9.40;;;;;;;;;;5110363;28;20063;-57
2022/12/05 22:08:35;;;;;;;14.82;10.13;;;;;;;;;;5087463;28;20036;-56
2022/12/05 22:11:44;;;;;;;;;;;;;;;;;;;;;
2022/12/05 22:14:46;;;;;;;;;;;;;;;;;;;;;
2022/12/05 22:17:19;;;;;;;12.45;10.00;;;;;;;;;;5110764;28;20466;-55
2022/12/05 22:23:30;;;;;;;10.65;9.13;;;;;;;;;;5077419;28;20079;-55
2022/12/05 22:26:24;;;;;;;12.20;8.65;;;;;;;;;;5075811;28;20036;-55
2022/12/05 22:29:35;;;;;;;12.30;9.57;;;;;;;;;;5111124;28;20374;-56
2022/12/05 22:32:25;;;;;;;13.38;9.30;;;;;;;;;;5111556;28;20028;-56
2022/12/05 22:38:26;;;;;;;14.60;9.95;;;;;;;;;;5068385;28;20136;-57
2022/12/05 22:41:30;;;;;;;13.40;10.30;;;;;;;;;;5050923;28;20048;-57
2022/12/05 22:44:44;;;;;;;;;;;;;;;;;;;;;
2022/12/05 22:50:31;;;;;;;10.60;8.50;;;;;;;;;;5068278;28;20028;-56
2022/12/05 22:53:16;;;;;;;13.38;8.90;;;;;;;;;;5090950;28;20044;-56
2022/12/05 22:56:03;;;;;;;17.17;11.13;;;;;;;;;;5111604;28;20092;-56
2022/12/05 22:59:08;;;;;;;13.52;11.38;;;;;;;;;;5110515;28;20050;-56
2022/12/05 23:02:09;;;;;;;12.60;11.13;;;;;;;;;;5109685;28;20024;-57
2022/12/05 23:04:38;;;;;;;;;;;;;;;;;;5066842;28;20104;-57
2022/12/05 23:07:16;;;;;;;12.60;10.02;;;;;;;;;;5109667;28;19992;-57
2022/12/05 23:16:02;;;;;;;12.60;10.38;;;;;;;;;;5091482;28;20456;-57
2022/12/05 23:18:58;;;;;;;19.00;10.27;;;;;;;;;;5109853;28;20024;-56
2022/12/05 23:27:54;;;;;;;11.52;8.50;;;;;;;;;;5130120;28;20039;-57
2022/12/05 23:36:27;;;;;;;9.57;6.90;;;;;;;;;;5085225;28;20117;-55
2022/12/05 23:39:28;;;;;;;11.93;8.75;;;;;;;;;;5129789;28;20028;-57
2022/12/05 23:42:19;;;;;;;10.20;7.43;;;;;;;;;;5013956;28;20030;-57
2022/12/05 23:44:45;;;;;;;9.27;7.28;;;;;;;;;;5107801;28;20036;-56
2022/12/05 23:47:40;;;;;;;10.23;8.55;;;;;;;;;;5130288;28;20047;-56
2022/12/05 23:50:30;;;;;;;10.77;7.75;;;;;;;;;;5130310;28;20024;-55
2022/12/05 23:53:26;;;;;;;;;;;;;;;;;;;;;
2022/12/05 23:56:10;;;;;;;9.88;7.18;;;;;;;;;;5129723;28;20059;-56
2022/12/05 23:58:52;;;;;;;8.13;6.55;;;;;;;;;;5124531;28;20488;-57
